sensor_id;sensor_type;location;lat;lon;timestamp;P1;durP1;ratioP1;P2;durP2;ratioP2
4835;SDS011;66719;51.226;6.902;2023-05-21T00:00:20;18.77;;;9.83;;
4835;SDS011;66719;51.226;6.902;2023-05-21T00:02:46;16.63;;;8.30;;
4835;SDS011;66719;51.226;6.902;2023-05-21T00:05:13;16.67;;;7.80;;
4835;SDS011;66719;51.226;6.902;2023-05-21T00:07:42;17.00;;;8.23;;
4835;SDS011;66719;51.226;6.902;2023-05-21T00:10:09;15.90;;;7.20;;
4835;SDS011;66719;51.226;6.902;2023-05-21T00:12:35;14.87;;;7.80;;
4835;SDS011;66719;51.226;6.902;2023-05-21T00:15:02;16.00;;;6.80;;
4835;SDS011;66719;51.226;6.902;2023-05-21T00:17:29;20.00;;;8.07;;
4835;SDS011;66719;51.226;6.902;2023-05-21T00:19:56;15.93;;;7.17;;
4835;SDS011;66719;51.226;6.902;2023-05-21T00:22:22;14.67;;;6.93;;
4835;SDS011;66719;51.226;6.902;2023-05-21T00:24:49;16.83;;;6.70;;
4835;SDS011;66719;51.226;6.902;2023-05-21T00:27:15;17.03;;;7.60;;
4835;SDS011;66719;51.226;6.902;2023-05-21T00:29:42;17.60;;;7.77;;
4835;SDS011;66719;51.226;6.902;2023-05-21T00:32:09;15.10;;;7.17;;
4835;SDS011;66719;51.226;6.902;2023-05-21T00:34:37;14.97;;;7.00;;
4835;SDS011;66719;51.226;6.902;2023-05-21T00:37:03;14.87;;;7.47;;
4835;SDS011;66719;51.226;6.902;2023-05-21T00:39:30;18.60;;;7.87;;
4835;SDS011;66719;51.226;6.902;2023-05-21T00:41:56;15.90;;;7.50;;
4835;SDS011;66719;51.226;6.902;2023-05-21T00:44:23;16.30;;;7.70;;
4835;SDS011;66719;51.226;6.902;2023-05-21T00:46:50;15.57;;;7.30;;
4835;SDS011;66719;51.226;6.902;2023-05-21T00:49:20;21.20;;;9.10;;
4835;SDS011;66719;51.226;6.902;2023-05-21T00:51:47;16.57;;;8.00;;
4835;SDS011;66719;51.226;6.902;2023-05-21T00:54:14;19.17;;;8.27;;
4835;SDS011;66719;51.226;6.902;2023-05-21T00:56:41;17.43;;;8.10;;
4835;SDS011;66719;51.226;6.902;2023-05-21T00:59:07;17.57;;;8.60;;
4835;SDS011;66719;51.226;6.902;2023-05-21T01:01:34;17.63;;;8.23;;
4835;SDS011;66719;51.226;6.902;2023-05-21T01:04:02;17.90;;;9.10;;
4835;SDS011;66719;51.226;6.902;2023-05-21T01:06:29;15.63;;;7.80;;
4835;SDS011;66719;51.226;6.902;2023-05-21T01:09:00;18.03;;;9.17;;
4835;SDS011;66719;51.226;6.902;2023-05-21T01:14:05;17.30;;;8.60;;
4835;SDS011;66719;51.226;6.902;2023-05-21T01:16:38;19.43;;;9.03;;
4835;SDS011;66719;51.226;6.902;2023-05-21T01:19:08;18.93;;;9.10;;
4835;SDS011;66719;51.226;6.902;2023-05-21T01:21:41;22.33;;;9.30;;
4835;SDS011;66719;51.226;6.902;2023-05-21T01:24:12;20.60;;;10.00;;
4835;SDS011;66719;51.226;6.902;2023-05-21T01:26:40;19.90;;;9.03;;
4835;SDS011;66719;51.226;6.902;2023-05-21T01:29:07;21.10;;;9.23;;
4835;SDS011;66719;51.226;6.902;2023-05-21T01:31:51;17.60;;;8.80;;
4835;SDS011;66719;51.226;6.902;2023-05-21T01:34:55;17.67;;;8.30;;
4835;SDS011;66719;51.226;6.902;2023-05-21T01:37:36;17.10;;;8.53;;
4835;SDS011;66719;51.226;6.902;2023-05-21T01:40:18;20.80;;;8.80;;
4835;SDS011;66719;51.226;6.902;2023-05-21T01:42:50;15.87;;;8.00;;
4835;SDS011;66719;51.226;6.902;2023-05-21T01:45:17;19.37;;;8.73;;
4835;SDS011;66719;51.226;6.902;2023-05-21T01:47:46;17.30;;;8.27;;
4835;SDS011;66719;51.226;6.902;2023-05-21T01:50:15;19.70;;;8.60;;
4835;SDS011;66719;51.226;6.902;2023-05-21T01:52:50;16.80;;;7.80;;
4835;SDS011;66719;51.226;6.902;2023-05-21T01:55:19;17.97;;;8.20;;
4835;SDS011;66719;51.226;6.902;2023-05-21T01:57:50;18.63;;;8.83;;
4835;SDS011;66719;51.226;6.902;2023-05-21T02:00:19;18.03;;;8.30;;
4835;SDS011;66719;51.226;6.902;2023-05-21T02:02:47;16.60;;;8.50;;
4835;SDS011;66719;51.226;6.902;2023-05-21T02:05:14;19.30;;;8.90;;
4835;SDS011;66719;51.226;6.902;2023-05-21T02:07:41;18.30;;;9.00;;
4835;SDS011;66719;51.226;6.902;2023-05-21T02:10:09;16.93;;;7.97;;
4835;SDS011;66719;51.226;6.902;2023-05-21T02:12:36;20.33;;;8.67;;
4835;SDS011;66719;51.226;6.902;2023-05-21T02:15:03;16.20;;;8.10;;
4835;SDS011;66719;51.226;6.902;2023-05-21T02:17:31;17.07;;;8.83;;
4835;SDS011;66719;51.226;6.902;2023-05-21T02:19:59;20.33;;;10.10;;
4835;SDS011;66719;51.226;6.902;2023-05-21T02:22:39;17.27;;;9.27;;
4835;SDS011;66719;51.226;6.902;2023-05-21T02:25:07;18.13;;;8.13;;
4835;SDS011;66719;51.226;6.902;2023-05-21T02:27:34;20.30;;;9.33;;
4835;SDS011;66719;51.226;6.902;2023-05-21T02:30:03;16.07;;;8.10;;
4835;SDS011;66719;51.226;6.902;2023-05-21T02:32:30;17.77;;;7.83;;
4835;SDS011;66719;51.226;6.902;2023-05-21T02:34:57;18.50;;;9.07;;
4835;SDS011;66719;51.226;6.902;2023-05-21T02:37:25;17.53;;;8.93;;
4835;SDS011;66719;51.226;6.902;2023-05-21T02:39:54;17.40;;;8.70;;
4835;SDS011;66719;51.226;6.902;2023-05-21T02:42:21;18.50;;;8.60;;
4835;SDS011;66719;51.226;6.902;2023-05-21T02:44:49;17.37;;;8.50;;
4835;SDS011;66719;51.226;6.902;2023-05-21T02:47:16;15.43;;;8.23;;
4835;SDS011;66719;51.226;6.902;2023-05-21T02:49:44;16.60;;;8.60;;
4835;SDS011;66719;51.226;6.902;2023-05-21T02:52:10;15.07;;;7.53;;
4835;SDS011;66719;51.226;6.902;2023-05-21T02:54:38;16.30;;;8.70;;
4835;SDS011;66719;51.226;6.902;2023-05-21T02:57:04;17.23;;;8.43;;
4835;SDS011;66719;51.226;6.902;2023-05-21T02:59:31;17.70;;;8.30;;
4835;SDS011;66719;51.226;6.902;2023-05-21T03:01:57;17.40;;;8.00;;
4835;SDS011;66719;51.226;6.902;2023-05-21T03:04:24;16.83;;;7.60;;
4835;SDS011;66719;51.226;6.902;2023-05-21T03:06:53;18.00;;;7.80;;
4835;SDS011;66719;51.226;6.902;2023-05-21T03:09:20;19.13;;;8.63;;
4835;SDS011;66719;51.226;6.902;2023-05-21T03:11:48;17.73;;;8.20;;
4835;SDS011;66719;51.226;6.902;2023-05-21T03:14:15;15.00;;;7.60;;
4835;SDS011;66719;51.226;6.902;2023-05-21T03:16:41;15.53;;;8.00;;
4835;SDS011;66719;51.226;6.902;2023-05-21T03:19:09;15.37;;;7.70;;
4835;SDS011;66719;51.226;6.902;2023-05-21T03:21:36;16.90;;;8.30;;
4835;SDS011;66719;51.226;6.902;2023-05-21T03:24:03;17.40;;;7.93;;
4835;SDS011;66719;51.226;6.902;2023-05-21T03:26:30;20.33;;;8.07;;
4835;SDS011;66719;51.226;6.902;2023-05-21T03:28:57;16.10;;;7.33;;
4835;SDS011;66719;51.226;6.902;2023-05-21T03:31:24;17.10;;;8.67;;
4835;SDS011;66719;51.226;6.902;2023-05-21T03:33:51;16.70;;;8.20;;
4835;SDS011;66719;51.226;6.902;2023-05-21T03:36:18;17.83;;;8.00;;
4835;SDS011;66719;51.226;6.902;2023-05-21T03:38:45;16.23;;;8.70;;
4835;SDS011;66719;51.226;6.902;2023-05-21T03:41:12;14.20;;;7.20;;
4835;SDS011;66719;51.226;6.902;2023-05-21T03:43:39;15.97;;;8.20;;
4835;SDS011;66719;51.226;6.902;2023-05-21T03:46:05;14.77;;;7.70;;
4835;SDS011;66719;51.226;6.902;2023-05-21T03:48:32;15.87;;;7.83;;
4835;SDS011;66719;51.226;6.902;2023-05-21T03:50:58;21.37;;;8.33;;
4835;SDS011;66719;51.226;6.902;2023-05-21T03:53:25;19.70;;;8.20;;
4835;SDS011;66719;51.226;6.902;2023-05-21T03:55:52;16.70;;;8.20;;
4835;SDS011;66719;51.226;6.902;2023-05-21T03:58:21;18.40;;;8.27;;
4835;SDS011;66719;51.226;6.902;2023-05-21T04:00:47;17.60;;;8.30;;
4835;SDS011;66719;51.226;6.902;2023-05-21T04:03:14;18.07;;;8.47;;
4835;SDS011;66719;51.226;6.902;2023-05-21T04:05:41;18.40;;;8.40;;
4835;SDS011;66719;51.226;6.902;2023-05-21T04:08:08;16.60;;;8.00;;
4835;SDS011;66719;51.226;6.902;2023-05-21T04:10:34;17.60;;;8.30;;
4835;SDS011;66719;51.226;6.902;2023-05-21T04:13:01;19.30;;;8.67;;
4835;SDS011;66719;51.226;6.902;2023-05-21T04:15:28;15.40;;;7.60;;
4835;SDS011;66719;51.226;6.902;2023-05-21T04:17:54;24.33;;;9.13;;
4835;SDS011;66719;51.226;6.902;2023-05-21T04:20:22;17.17;;;8.87;;
4835;SDS011;66719;51.226;6.902;2023-05-21T04:22:48;15.77;;;7.73;;
4835;SDS011;66719;51.226;6.902;2023-05-21T04:25:15;17.50;;;8.47;;
4835;SDS011;66719;51.226;6.902;2023-05-21T04:27:42;17.50;;;8.40;;
4835;SDS011;66719;51.226;6.902;2023-05-21T04:30:08;20.77;;;8.50;;
4835;SDS011;66719;51.226;6.902;2023-05-21T04:32:36;15.83;;;7.77;;
4835;SDS011;66719;51.226;6.902;2023-05-21T04:35:04;14.30;;;7.60;;
4835;SDS011;66719;51.226;6.902;2023-05-21T04:37:30;17.00;;;7.70;;
4835;SDS011;66719;51.226;6.902;2023-05-21T04:40:00;14.30;;;7.93;;
4835;SDS011;66719;51.226;6.902;2023-05-21T04:42:27;17.10;;;8.30;;
4835;SDS011;66719;51.226;6.902;2023-05-21T04:44:55;17.30;;;7.97;;
4835;SDS011;66719;51.226;6.902;2023-05-21T04:47:24;13.90;;;7.00;;
4835;SDS011;66719;51.226;6.902;2023-05-21T04:49:51;14.43;;;7.40;;
4835;SDS011;66719;51.226;6.902;2023-05-21T04:52:18;16.27;;;8.13;;
4835;SDS011;66719;51.226;6.902;2023-05-21T04:54:45;15.23;;;7.50;;
4835;SDS011;66719;51.226;6.902;2023-05-21T04:57:13;18.00;;;8.53;;
4835;SDS011;66719;51.226;6.902;2023-05-21T04:59:39;15.60;;;7.40;;
4835;SDS011;66719;51.226;6.902;2023-05-21T05:02:06;16.87;;;8.80;;
4835;SDS011;66719;51.226;6.902;2023-05-21T05:04:33;18.37;;;8.10;;
4835;SDS011;66719;51.226;6.902;2023-05-21T05:06:59;22.80;;;8.30;;
4835;SDS011;66719;51.226;6.902;2023-05-21T05:09:26;17.57;;;8.60;;
4835;SDS011;66719;51.226;6.902;2023-05-21T05:11:53;17.47;;;7.37;;
4835;SDS011;66719;51.226;6.902;2023-05-21T05:14:19;16.87;;;7.73;;
4835;SDS011;66719;51.226;6.902;2023-05-21T05:16:46;18.20;;;8.47;;
4835;SDS011;66719;51.226;6.902;2023-05-21T05:19:15;14.93;;;7.53;;
4835;SDS011;66719;51.226;6.902;2023-05-21T05:21:42;20.10;;;8.20;;
4835;SDS011;66719;51.226;6.902;2023-05-21T05:24:08;19.83;;;9.00;;
4835;SDS011;66719;51.226;6.902;2023-05-21T05:26:35;15.43;;;7.93;;
4835;SDS011;66719;51.226;6.902;2023-05-21T05:29:01;16.10;;;7.80;;
4835;SDS011;66719;51.226;6.902;2023-05-21T05:31:28;22.40;;;8.30;;
4835;SDS011;66719;51.226;6.902;2023-05-21T05:33:54;18.30;;;8.47;;
4835;SDS011;66719;51.226;6.902;2023-05-21T05:36:21;18.07;;;8.33;;
4835;SDS011;66719;51.226;6.902;2023-05-21T05:38:47;20.70;;;8.87;;
4835;SDS011;66719;51.226;6.902;2023-05-21T05:41:14;16.27;;;9.07;;
4835;SDS011;66719;51.226;6.902;2023-05-21T05:43:40;17.33;;;8.90;;
4835;SDS011;66719;51.226;6.902;2023-05-21T05:46:07;17.47;;;8.93;;
4835;SDS011;66719;51.226;6.902;2023-05-21T05:48:34;16.97;;;8.50;;
4835;SDS011;66719;51.226;6.902;2023-05-21T05:51:00;22.60;;;8.90;;
4835;SDS011;66719;51.226;6.902;2023-05-21T05:53:27;18.60;;;9.00;;
4835;SDS011;66719;51.226;6.902;2023-05-21T05:55:53;17.40;;;8.97;;
4835;SDS011;66719;51.226;6.902;2023-05-21T05:58:20;17.83;;;8.40;;
4835;SDS011;66719;51.226;6.902;2023-05-21T06:00:46;16.00;;;8.80;;
4835;SDS011;66719;51.226;6.902;2023-05-21T06:03:13;15.17;;;7.43;;
4835;SDS011;66719;51.226;6.902;2023-05-21T06:05:40;16.47;;;8.67;;
4835;SDS011;66719;51.226;6.902;2023-05-21T06:08:06;15.63;;;8.07;;
4835;SDS011;66719;51.226;6.902;2023-05-21T06:10:33;15.07;;;7.90;;
4835;SDS011;66719;51.226;6.902;2023-05-21T06:12:59;18.70;;;9.50;;
4835;SDS011;66719;51.226;6.902;2023-05-21T06:15:26;14.53;;;8.20;;
4835;SDS011;66719;51.226;6.902;2023-05-21T06:17:52;18.67;;;9.13;;
4835;SDS011;66719;51.226;6.902;2023-05-21T06:20:19;19.33;;;8.27;;
4835;SDS011;66719;51.226;6.902;2023-05-21T06:22:45;16.40;;;8.07;;
4835;SDS011;66719;51.226;6.902;2023-05-21T06:25:12;16.43;;;8.13;;
4835;SDS011;66719;51.226;6.902;2023-05-21T06:27:39;15.80;;;8.53;;
4835;SDS011;66719;51.226;6.902;2023-05-21T06:30:06;17.57;;;9.70;;
4835;SDS011;66719;51.226;6.902;2023-05-21T06:32:33;15.40;;;8.07;;
4835;SDS011;66719;51.226;6.902;2023-05-21T06:35:00;16.80;;;8.97;;
4835;SDS011;66719;51.226;6.902;2023-05-21T06:37:26;16.50;;;9.37;;
4835;SDS011;66719;51.226;6.902;2023-05-21T06:39:53;19.47;;;9.23;;
4835;SDS011;66719;51.226;6.902;2023-05-21T06:42:19;16.47;;;9.73;;
4835;SDS011;66719;51.226;6.902;2023-05-21T06:44:46;19.73;;;10.67;;
4835;SDS011;66719;51.226;6.902;2023-05-21T06:47:13;18.03;;;9.20;;
4835;SDS011;66719;51.226;6.902;2023-05-21T06:49:42;19.90;;;9.47;;
4835;SDS011;66719;51.226;6.902;2023-05-21T06:52:09;18.50;;;10.70;;
4835;SDS011;66719;51.226;6.902;2023-05-21T06:54:36;22.53;;;10.77;;
4835;SDS011;66719;51.226;6.902;2023-05-21T06:57:05;20.40;;;10.23;;
4835;SDS011;66719;51.226;6.902;2023-05-21T06:59:33;21.03;;;10.30;;
4835;SDS011;66719;51.226;6.902;2023-05-21T07:02:00;26.93;;;9.70;;
4835;SDS011;66719;51.226;6.902;2023-05-21T07:04:29;18.50;;;9.77;;
4835;SDS011;66719;51.226;6.902;2023-05-21T07:06:56;21.40;;;10.23;;
4835;SDS011;66719;51.226;6.902;2023-05-21T07:09:23;17.67;;;9.23;;
4835;SDS011;66719;51.226;6.902;2023-05-21T07:11:49;20.13;;;10.80;;
4835;SDS011;66719;51.226;6.902;2023-05-21T07:14:18;19.60;;;9.90;;
4835;SDS011;66719;51.226;6.902;2023-05-21T07:16:44;22.97;;;10.50;;
4835;SDS011;66719;51.226;6.902;2023-05-21T07:19:11;24.23;;;11.07;;
4835;SDS011;66719;51.226;6.902;2023-05-21T07:21:38;18.53;;;10.20;;
4835;SDS011;66719;51.226;6.902;2023-05-21T07:24:04;16.93;;;9.40;;
4835;SDS011;66719;51.226;6.902;2023-05-21T07:26:31;16.83;;;9.60;;
4835;SDS011;66719;51.226;6.902;2023-05-21T07:28:57;18.73;;;9.30;;
4835;SDS011;66719;51.226;6.902;2023-05-21T07:31:24;19.63;;;9.73;;
4835;SDS011;66719;51.226;6.902;2023-05-21T07:33:51;19.80;;;11.30;;
4835;SDS011;66719;51.226;6.902;2023-05-21T07:36:17;20.87;;;10.70;;
4835;SDS011;66719;51.226;6.902;2023-05-21T07:38:44;18.20;;;9.43;;
4835;SDS011;66719;51.226;6.902;2023-05-21T07:41:10;18.27;;;10.30;;
4835;SDS011;66719;51.226;6.902;2023-05-21T07:43:37;20.20;;;10.50;;
4835;SDS011;66719;51.226;6.902;2023-05-21T07:46:03;18.77;;;11.00;;
4835;SDS011;66719;51.226;6.902;2023-05-21T07:48:30;19.37;;;9.93;;
4835;SDS011;66719;51.226;6.902;2023-05-21T07:50:59;18.10;;;10.03;;
4835;SDS011;66719;51.226;6.902;2023-05-21T07:53:26;18.33;;;10.07;;
4835;SDS011;66719;51.226;6.902;2023-05-21T07:55:53;20.23;;;10.03;;
4835;SDS011;66719;51.226;6.902;2023-05-21T07:58:20;25.13;;;10.40;;
4835;SDS011;66719;51.226;6.902;2023-05-21T08:00:48;18.43;;;9.77;;
4835;SDS011;66719;51.226;6.902;2023-05-21T08:03:16;19.10;;;10.00;;
4835;SDS011;66719;51.226;6.902;2023-05-21T08:05:44;18.27;;;9.90;;
4835;SDS011;66719;51.226;6.902;2023-05-21T08:08:14;19.70;;;9.90;;
4835;SDS011;66719;51.226;6.902;2023-05-21T08:10:42;19.13;;;10.30;;
4835;SDS011;66719;51.226;6.902;2023-05-21T08:13:13;21.70;;;10.53;;
4835;SDS011;66719;51.226;6.902;2023-05-21T08:15:41;19.50;;;10.10;;
4835;SDS011;66719;51.226;6.902;2023-05-21T08:18:08;17.27;;;9.30;;
4835;SDS011;66719;51.226;6.902;2023-05-21T08:20:35;19.30;;;9.40;;
4835;SDS011;66719;51.226;6.902;2023-05-21T08:23:02;20.40;;;10.97;;
4835;SDS011;66719;51.226;6.902;2023-05-21T08:25:29;23.87;;;11.80;;
4835;SDS011;66719;51.226;6.902;2023-05-21T08:27:55;22.27;;;10.53;;
4835;SDS011;66719;51.226;6.902;2023-05-21T08:30:22;19.90;;;10.40;;
4835;SDS011;66719;51.226;6.902;2023-05-21T08:32:48;19.70;;;10.60;;
4835;SDS011;66719;51.226;6.902;2023-05-21T08:35:15;20.77;;;10.30;;
4835;SDS011;66719;51.226;6.902;2023-05-21T08:37:41;22.63;;;11.73;;
4835;SDS011;66719;51.226;6.902;2023-05-21T08:40:10;23.90;;;11.43;;
4835;SDS011;66719;51.226;6.902;2023-05-21T08:45:16;19.27;;;10.73;;
4835;SDS011;66719;51.226;6.902;2023-05-21T08:47:47;20.00;;;10.00;;
4835;SDS011;66719;51.226;6.902;2023-05-21T08:50:22;28.17;;;16.10;;
4835;SDS011;66719;51.226;6.902;2023-05-21T08:52:51;21.43;;;11.30;;
4835;SDS011;66719;51.226;6.902;2023-05-21T08:55:18;21.40;;;11.40;;
4835;SDS011;66719;51.226;6.902;2023-05-21T08:57:45;20.90;;;9.97;;
4835;SDS011;66719;51.226;6.902;2023-05-21T09:00:11;18.70;;;10.70;;
4835;SDS011;66719;51.226;6.902;2023-05-21T09:02:39;20.47;;;11.47;;
4835;SDS011;66719;51.226;6.902;2023-05-21T09:05:06;18.77;;;10.40;;
4835;SDS011;66719;51.226;6.902;2023-05-21T09:07:38;22.80;;;12.97;;
4835;SDS011;66719;51.226;6.902;2023-05-21T09:10:12;39.30;;;24.77;;
4835;SDS011;66719;51.226;6.902;2023-05-21T09:12:39;20.90;;;11.63;;
4835;SDS011;66719;51.226;6.902;2023-05-21T09:15:06;19.97;;;11.73;;
4835;SDS011;66719;51.226;6.902;2023-05-21T09:17:36;19.80;;;11.33;;
4835;SDS011;66719;51.226;6.902;2023-05-21T09:20:09;19.57;;;10.73;;
4835;SDS011;66719;51.226;6.902;2023-05-21T09:22:43;23.33;;;11.33;;
4835;SDS011;66719;51.226;6.902;2023-05-21T09:25:12;21.07;;;11.30;;
4835;SDS011;66719;51.226;6.902;2023-05-21T09:27:41;18.70;;;10.37;;
4835;SDS011;66719;51.226;6.902;2023-05-21T09:30:08;21.00;;;11.93;;
4835;SDS011;66719;51.226;6.902;2023-05-21T09:32:37;23.00;;;11.20;;
4835;SDS011;66719;51.226;6.902;2023-05-21T09:35:05;21.10;;;12.00;;
4835;SDS011;66719;51.226;6.902;2023-05-21T09:37:42;20.57;;;11.03;;
4835;SDS011;66719;51.226;6.902;2023-05-21T09:40:14;24.20;;;13.70;;
4835;SDS011;66719;51.226;6.902;2023-05-21T09:42:45;27.43;;;13.73;;
4835;SDS011;66719;51.226;6.902;2023-05-21T09:45:17;23.17;;;12.47;;
4835;SDS011;66719;51.226;6.902;2023-05-21T09:47:45;21.90;;;12.53;;
4835;SDS011;66719;51.226;6.902;2023-05-21T09:50:16;23.73;;;12.27;;
4835;SDS011;66719;51.226;6.902;2023-05-21T09:52:45;20.30;;;11.50;;
4835;SDS011;66719;51.226;6.902;2023-05-21T09:55:12;22.07;;;12.53;;
4835;SDS011;66719;51.226;6.902;2023-05-21T09:57:43;25.70;;;13.70;;
4835;SDS011;66719;51.226;6.902;2023-05-21T10:00:18;20.60;;;12.33;;
4835;SDS011;66719;51.226;6.902;2023-05-21T10:02:50;20.80;;;12.73;;
4835;SDS011;66719;51.226;6.902;2023-05-21T10:05:19;19.10;;;11.70;;
4835;SDS011;66719;51.226;6.902;2023-05-21T10:07:49;19.80;;;11.03;;
4835;SDS011;66719;51.226;6.902;2023-05-21T10:10:20;19.23;;;12.10;;
4835;SDS011;66719;51.226;6.902;2023-05-21T10:12:53;21.87;;;11.90;;
4835;SDS011;66719;51.226;6.902;2023-05-21T10:15:23;23.47;;;13.23;;
4835;SDS011;66719;51.226;6.902;2023-05-21T10:17:51;21.07;;;12.17;;
4835;SDS011;66719;51.226;6.902;2023-05-21T10:20:18;22.77;;;13.10;;
4835;SDS011;66719;51.226;6.902;2023-05-21T10:22:46;20.53;;;11.97;;
4835;SDS011;66719;51.226;6.902;2023-05-21T10:25:13;22.10;;;12.17;;
4835;SDS011;66719;51.226;6.902;2023-05-21T10:27:40;21.80;;;12.67;;
4835;SDS011;66719;51.226;6.902;2023-05-21T10:30:07;20.07;;;12.07;;
4835;SDS011;66719;51.226;6.902;2023-05-21T10:32:35;22.07;;;12.53;;
4835;SDS011;66719;51.226;6.902;2023-05-21T10:35:01;22.23;;;13.57;;
4835;SDS011;66719;51.226;6.902;2023-05-21T10:37:28;22.13;;;12.83;;
4835;SDS011;66719;51.226;6.902;2023-05-21T10:39:55;21.23;;;12.53;;
4835;SDS011;66719;51.226;6.902;2023-05-21T10:45:10;29.30;;;19.47;;
4835;SDS011;66719;51.226;6.902;2023-05-21T10:53:31;21.80;;;13.00;;
4835;SDS011;66719;51.226;6.902;2023-05-21T10:56:31;22.87;;;13.13;;
4835;SDS011;66719;51.226;6.902;2023-05-21T11:01:36;26.30;;;13.53;;
4835;SDS011;66719;51.226;6.902;2023-05-21T11:04:04;24.17;;;13.87;;
4835;SDS011;66719;51.226;6.902;2023-05-21T11:06:31;23.97;;;13.17;;
4835;SDS011;66719;51.226;6.902;2023-05-21T11:09:16;21.50;;;13.23;;
4835;SDS011;66719;51.226;6.902;2023-05-21T11:11:49;22.63;;;13.13;;
4835;SDS011;66719;51.226;6.902;2023-05-21T11:16:58;23.43;;;15.17;;
4835;SDS011;66719;51.226;6.902;2023-05-21T11:19:38;24.73;;;13.90;;
4835;SDS011;66719;51.226;6.902;2023-05-21T11:24:36;22.50;;;13.20;;
4835;SDS011;66719;51.226;6.902;2023-05-21T11:27:04;26.17;;;15.40;;
4835;SDS011;66719;51.226;6.902;2023-05-21T11:29:39;25.17;;;13.60;;
4835;SDS011;66719;51.226;6.902;2023-05-21T11:32:09;23.77;;;14.10;;
4835;SDS011;66719;51.226;6.902;2023-05-21T11:34:38;22.83;;;12.63;;
4835;SDS011;66719;51.226;6.902;2023-05-21T11:39:46;25.70;;;14.10;;
4835;SDS011;66719;51.226;6.902;2023-05-21T11:42:26;19.50;;;12.43;;
4835;SDS011;66719;51.226;6.902;2023-05-21T11:44:55;26.23;;;13.07;;
4835;SDS011;66719;51.226;6.902;2023-05-21T11:47:24;21.63;;;12.97;;
4835;SDS011;66719;51.226;6.902;2023-05-21T11:49:52;23.73;;;13.30;;
4835;SDS011;66719;51.226;6.902;2023-05-21T11:52:19;22.37;;;13.00;;
4835;SDS011;66719;51.226;6.902;2023-05-21T11:54:52;26.40;;;14.10;;
4835;SDS011;66719;51.226;6.902;2023-05-21T11:57:24;22.87;;;14.47;;
4835;SDS011;66719;51.226;6.902;2023-05-21T11:59:56;49.07;;;31.37;;
4835;SDS011;66719;51.226;6.902;2023-05-21T12:02:25;39.67;;;27.20;;
4835;SDS011;66719;51.226;6.902;2023-05-21T12:04:53;22.40;;;13.47;;
4835;SDS011;66719;51.226;6.902;2023-05-21T12:07:25;24.00;;;14.00;;
4835;SDS011;66719;51.226;6.902;2023-05-21T12:09:56;24.13;;;13.60;;
4835;SDS011;66719;51.226;6.902;2023-05-21T12:12:24;26.77;;;13.97;;
4835;SDS011;66719;51.226;6.902;2023-05-21T12:15:00;27.23;;;15.40;;
4835;SDS011;66719;51.226;6.902;2023-05-21T12:17:27;26.83;;;16.33;;
4835;SDS011;66719;51.226;6.902;2023-05-21T12:19:57;25.70;;;14.20;;
4835;SDS011;66719;51.226;6.902;2023-05-21T12:22:24;23.57;;;14.53;;
4835;SDS011;66719;51.226;6.902;2023-05-21T12:24:53;27.93;;;15.63;;
4835;SDS011;66719;51.226;6.902;2023-05-21T12:27:20;25.57;;;12.90;;
4835;SDS011;66719;51.226;6.902;2023-05-21T12:29:50;24.57;;;14.37;;
4835;SDS011;66719;51.226;6.902;2023-05-21T12:32:18;30.30;;;19.00;;
4835;SDS011;66719;51.226;6.902;2023-05-21T12:34:49;22.80;;;15.80;;
4835;SDS011;66719;51.226;6.902;2023-05-21T12:37:22;20.60;;;13.10;;
4835;SDS011;66719;51.226;6.902;2023-05-21T12:39:53;23.27;;;12.07;;
4835;SDS011;66719;51.226;6.902;2023-05-21T12:42:24;21.90;;;13.33;;
4835;SDS011;66719;51.226;6.902;2023-05-21T12:44:52;20.60;;;12.50;;
4835;SDS011;66719;51.226;6.902;2023-05-21T12:47:21;20.83;;;12.20;;
4835;SDS011;66719;51.226;6.902;2023-05-21T12:49:49;18.30;;;11.70;;
4835;SDS011;66719;51.226;6.902;2023-05-21T12:52:20;23.60;;;14.17;;
4835;SDS011;66719;51.226;6.902;2023-05-21T12:54:51;23.97;;;13.87;;
4835;SDS011;66719;51.226;6.902;2023-05-21T12:57:20;22.93;;;14.10;;
4835;SDS011;66719;51.226;6.902;2023-05-21T12:59:54;22.60;;;14.13;;
4835;SDS011;66719;51.226;6.902;2023-05-21T13:02:23;25.83;;;13.37;;
4835;SDS011;66719;51.226;6.902;2023-05-21T13:04:55;23.53;;;14.37;;
4835;SDS011;66719;51.226;6.902;2023-05-21T13:07:26;21.57;;;13.07;;
4835;SDS011;66719;51.226;6.902;2023-05-21T13:09:54;23.27;;;13.50;;
4835;SDS011;66719;51.226;6.902;2023-05-21T13:12:21;25.90;;;14.63;;
4835;SDS011;66719;51.226;6.902;2023-05-21T13:14:51;21.33;;;13.80;;
4835;SDS011;66719;51.226;6.902;2023-05-21T13:17:19;25.00;;;12.40;;
4835;SDS011;66719;51.226;6.902;2023-05-21T13:22:35;23.07;;;13.30;;
4835;SDS011;66719;51.226;6.902;2023-05-21T13:25:04;22.40;;;13.50;;
4835;SDS011;66719;51.226;6.902;2023-05-21T13:27:32;22.90;;;13.93;;
4835;SDS011;66719;51.226;6.902;2023-05-21T13:29:58;24.37;;;14.50;;
4835;SDS011;66719;51.226;6.902;2023-05-21T13:32:26;23.33;;;13.90;;
4835;SDS011;66719;51.226;6.902;2023-05-21T13:34:53;25.20;;;14.10;;
4835;SDS011;66719;51.226;6.902;2023-05-21T13:37:19;18.97;;;11.70;;
4835;SDS011;66719;51.226;6.902;2023-05-21T13:39:46;23.57;;;12.90;;
4835;SDS011;66719;51.226;6.902;2023-05-21T13:42:13;20.63;;;12.73;;
4835;SDS011;66719;51.226;6.902;2023-05-21T13:44:39;23.87;;;15.80;;
4835;SDS011;66719;51.226;6.902;2023-05-21T13:47:06;23.50;;;13.97;;
4835;SDS011;66719;51.226;6.902;2023-05-21T13:49:35;24.00;;;12.80;;
4835;SDS011;66719;51.226;6.902;2023-05-21T13:52:02;29.33;;;15.90;;
4835;SDS011;66719;51.226;6.902;2023-05-21T13:54:29;22.30;;;12.50;;
4835;SDS011;66719;51.226;6.902;2023-05-21T13:56:56;22.13;;;12.77;;
4835;SDS011;66719;51.226;6.902;2023-05-21T13:59:23;29.60;;;14.33;;
4835;SDS011;66719;51.226;6.902;2023-05-21T14:01:49;38.40;;;27.40;;
4835;SDS011;66719;51.226;6.902;2023-05-21T15:43:41;34.50;;;21.43;;
4835;SDS011;66719;51.226;6.902;2023-05-21T15:46:07;35.80;;;23.90;;
4835;SDS011;66719;51.226;6.902;2023-05-21T15:48:34;112.07;;;24.60;;
4835;SDS011;66719;51.226;6.902;2023-05-21T15:51:01;27.13;;;17.23;;
4835;SDS011;66719;51.226;6.902;2023-05-21T15:53:27;24.87;;;16.60;;
4835;SDS011;66719;51.226;6.902;2023-05-21T15:55:54;29.90;;;16.77;;
4835;SDS011;66719;51.226;6.902;2023-05-21T15:58:21;28.30;;;17.10;;
4835;SDS011;66719;51.226;6.902;2023-05-21T16:00:48;55.67;;;40.93;;
4835;SDS011;66719;51.226;6.902;2023-05-21T16:03:15;41.20;;;25.80;;
4835;SDS011;66719;51.226;6.902;2023-05-21T16:05:41;28.57;;;19.20;;
4835;SDS011;66719;51.226;6.902;2023-05-21T16:08:08;30.90;;;18.80;;
4835;SDS011;66719;51.226;6.902;2023-05-21T16:10:36;42.77;;;18.90;;
4835;SDS011;66719;51.226;6.902;2023-05-21T16:13:05;24.60;;;15.80;;
4835;SDS011;66719;51.226;6.902;2023-05-21T16:15:31;24.50;;;15.63;;
4835;SDS011;66719;51.226;6.902;2023-05-21T16:17:59;21.17;;;13.93;;
4835;SDS011;66719;51.226;6.902;2023-05-21T16:20:26;22.47;;;14.67;;
4835;SDS011;66719;51.226;6.902;2023-05-21T16:22:52;25.17;;;14.70;;
4835;SDS011;66719;51.226;6.902;2023-05-21T16:25:19;22.80;;;14.70;;
4835;SDS011;66719;51.226;6.902;2023-05-21T16:27:48;25.40;;;15.67;;
4835;SDS011;66719;51.226;6.902;2023-05-21T16:30:15;25.70;;;14.77;;
4835;SDS011;66719;51.226;6.902;2023-05-21T16:32:41;24.70;;;15.63;;
4835;SDS011;66719;51.226;6.902;2023-05-21T16:35:08;26.80;;;15.67;;
4835;SDS011;66719;51.226;6.902;2023-05-21T16:37:34;26.63;;;15.57;;
4835;SDS011;66719;51.226;6.902;2023-05-21T16:40:01;24.40;;;13.60;;
4835;SDS011;66719;51.226;6.902;2023-05-21T16:42:30;20.20;;;13.30;;
4835;SDS011;66719;51.226;6.902;2023-05-21T16:44:57;20.70;;;14.23;;
4835;SDS011;66719;51.226;6.902;2023-05-21T16:47:23;24.07;;;14.53;;
4835;SDS011;66719;51.226;6.902;2023-05-21T16:49:50;21.20;;;14.30;;
4835;SDS011;66719;51.226;6.902;2023-05-21T16:52:16;23.47;;;15.10;;